Alpha, California Weather observations

Data are for observation ending at time listed.
 Day   Time    Ave.   Ave.  Ave.  Vector   Max.   Stn.    Total    Solar   Ave.   Snow 
  of    of     Air    Rel.  Wind   Wind    Wind   Baro.  Precip.   Rad.    Soil   Depth
Year   Day     Temp.  Hum.  Speed  Dir.    Gust   Pres.                    Temp.       
2016   (PST)    F      %     mph   deg.    mph     mb.     in.     W/m2     F      in. 
---------------------------------------------------------------------------------------  
 211    0:40   69.9    28    2.3   100      3.3   791.6    0.00       0    999.0  162.2
 211    0:50   69.9    29    2.1    95      3.2   791.5    0.00       0    999.0  162.2
 211    1:00   69.8    29    2.9    94      4.0   791.5    0.00       0    999.0  162.2
 211    1:10   69.7    29    2.9    86      4.2   791.5    0.00       0    999.0  162.2
 211    1:20   69.8    29    2.1    78      3.0   791.4    0.00       0    999.0  162.2
 211    1:30   70.2    28    2.6    82      3.8   791.4    0.00       0    999.0  162.2
 211    1:40   70.5    28    2.2    82      3.6   791.3    0.00       0    999.0  162.2
 211    1:50   70.6    28    1.8    93      2.8   791.3    0.00       0    999.0  162.2
 211    2:00   70.5    28    1.7    96      2.3   791.2    0.00       0    999.0  162.2
 211    2:10   70.6    28    1.9   105      2.6   791.2    0.00       0    999.0  162.2
 211    2:20   70.8    28    2.0   112      2.9   791.1    0.00       0    999.0  162.2
 211    2:30   70.9    27    2.2   112      2.9   791.1    0.00       0    999.0  162.2
 211    2:40   71.1    27    1.7   118      2.5   791.1    0.00       0    999.0  162.2
 211    2:50   70.9    27    1.8   113      2.6   791.1    0.00       0    999.0  162.2
 211    3:00   70.8    27    1.6   122      2.2   791.1    0.00       0    999.0  162.2
 211    3:10   70.8    27    1.8   122      2.6   791.0    0.00       0    999.0  162.2
 211    3:20   70.7    27    1.7   111      2.8   791.0    0.00       0    999.0  162.2
 211    3:30   70.6    27    1.7   114      2.3   791.0    0.00       0    999.0  162.2
 211    3:40   70.6    27    1.7   109      2.3   791.1    0.00       0    999.0  162.2
 211    3:50   70.5    26    1.0   134      1.8   791.0    0.00       0    999.0  162.2
 211    4:00   70.5    26    1.4   154      2.6   791.0    0.00       0    999.0  162.2
 211    4:10   70.6    26    1.7   137      3.3   791.0    0.00       0    999.0  162.2
 211    4:20   70.2    27    2.3   132      4.0   791.1    0.00       0    999.0  162.2
 211    4:30   69.8    27    2.3   122      3.9   791.1    0.00       0    999.0  162.2
 211    4:40   69.5    27    2.2   131      3.9   791.1    0.00       0    999.0  162.2
 211    4:50   69.2    28    1.3   154      1.8   791.1    0.00       0    999.0  162.2
 211    5:00   69.0    28    1.6   153      2.6   791.1    0.00       1    999.0  162.2
 211    5:10   68.8    28    2.0   155      3.3   791.1    0.00       3    999.0  162.2
 211    5:20   68.7    28    1.8   158      2.9   791.1    0.00       8    999.0  162.2
 211    5:30   69.0    28    1.4   157      2.1   791.2    0.00      10    999.0  162.2
 211    5:40   69.1    28    2.1   159      3.4   791.2    0.00      30    999.0  162.2
 211    5:50   69.4    29    1.6   156      3.4   791.2    0.00      32    999.0  162.2
 211    6:00   69.1    29    2.0   153      3.7   791.3    0.00      27    999.0  162.2
 211    6:10   69.0    29    2.6   128      3.7   791.3    0.00      27    999.0  162.2
 211    6:20   69.5    29    2.8   124      3.9   791.3    0.00      23    999.0  162.2
 211    6:30   69.8    30    2.0   124      3.5   791.4    0.00      38    999.0  162.2
 211    6:40   69.9    30    2.0   102      2.9   791.4    0.00      26    999.0  162.2
 211    6:50   70.2    30    1.6   115      2.3   791.5    0.00      36    999.0  162.2
 211    7:00   70.7    29    1.7   140      2.8   791.5    0.00     107    999.0  162.2
 211    7:10   71.1    29    2.0   146      3.8   791.6    0.00     179    999.0  162.2
 211    7:20   72.4    28    2.4   158      3.5   791.7    0.00     248    999.0  162.2
 211    7:30   72.8    25    3.0   167      4.2   791.7    0.00     274    999.0  162.2
 211    7:40   72.8    25    3.3   165      5.3   791.8    0.00     299    999.0  162.1
 211    7:50   72.8    26    3.9   168      6.8   791.7    0.00     324    999.0  162.1
 211    8:00   72.8    26    3.4   163      5.6   791.8    0.00     348    999.0  162.1
 211    8:10   72.8    25    4.6   164      6.4   791.8    0.00     370    999.0  162.0
 211    8:20   73.3    26    2.7   180      5.6   791.8    0.00     393    999.0  162.0
 211    8:30   73.7    27    3.0   173      5.6   791.8    0.00     417    999.0  162.0
 211    8:40   73.9    26    2.1   214      4.8   791.7    0.00     439    999.0  162.0
 211    8:50   74.8    26    2.4   204      5.3   791.7    0.00     461    999.0  162.0
 211    9:00   75.0    26    3.5   179      6.4   791.7    0.00     481    999.0  162.0
 211    9:10   75.1    26    3.4   178      7.0   791.7    0.00     501    999.0  162.0
 211    9:20   75.1    28    4.5   171      7.7   791.7    0.00     519    999.0  162.0
 211    9:30   75.2    28    4.1   181      7.5   791.8    0.00     535    999.0  162.0
 211    9:40   75.5    27    3.1   184      7.0   791.8    0.00     551    999.0  162.0
 211    9:50   76.2    27    3.0   180      8.6   791.8    0.00     567    999.0  162.0
 211   10:00   76.1    28    4.9   173      9.8   791.8    0.00     582    999.0  162.0
 211   10:10   76.4    28    4.1   174      8.4   791.8    0.00     597    999.0  162.0
 211   10:20   76.9    27    3.5   193      7.9   791.8    0.00     610    999.0  162.0
 211   10:30   77.5    27    3.2   194      8.2   791.7    0.00     621    999.0  162.0
 211   10:40   77.9    27    2.7   209      6.3   791.7    0.00     631    999.0  162.0
 211   10:50   78.9    26    2.8   199      9.1   791.7    0.00     641    999.0  161.9
 211   11:00   79.1    25    2.2   253      4.9   791.7    0.00     650    999.0  161.9
 211   11:10   77.9    25    3.5   207      9.1   791.7    0.00     657    999.0  162.0
 211   11:20   78.6    25    3.4   198      8.2   791.6    0.00     664    999.0  161.9
 211   11:30   78.7    24    1.9   257      5.7   791.6    0.00     670    999.0  161.8
 211   11:40   80.0    24    2.8   220      7.2   791.6    0.00     674    999.0  161.7
 211   11:50   79.1    24    3.3   238      8.1   791.5    0.00     675    999.0  161.8
 211   12:00   80.5    24    2.8   223      9.6   791.5    0.00     678    999.0  161.8
 211   12:10   80.6    23    2.8   243      8.0   791.4    0.00     678    999.0  161.8
 211   12:20   80.6    23    3.4   214      9.1   791.3    0.00     677    999.0  161.9
 211   12:30   81.2    23    3.2   214      8.4   791.3    0.00     676    999.0  161.9
 211   12:40   80.9    22    2.9   241      8.0   791.3    0.00     672    999.0  161.7
 211   12:50   79.9    23    3.7   230      8.6   791.3    0.00     667    999.0  161.7
 211   13:00   80.1    23    2.8   254      8.3   791.3    0.00     660    999.0  161.7
 211   13:10   79.8    23    2.9   262      6.4   791.2    0.00     651    999.0  161.7
 211   13:20   79.9    23    3.7   218     10.7   791.2    0.00     642    999.0  161.7
 211   13:30   80.7    22    3.9   205     10.4   791.1    0.00     634    999.0  161.7
 211   13:40   79.9    23    3.2   228      9.7   791.0    0.00     624    999.0  161.8
 211   13:50   79.9    23    3.1   243      8.5   791.0    0.00     614    999.0  161.9
 211   14:00   80.3    22    3.5   232      8.3   790.8    0.00     602    999.0  161.8
 211   14:10   79.9    22    3.5   231      9.3   790.8    0.00     588    999.0  161.8
 211   14:20   79.5    22    3.4   222      9.8   790.7    0.00     551    999.0  161.9
 211   14:30   79.2    22    2.6   249      7.8   790.6    0.00     153    999.0  161.9
 211   14:40   79.2    22    3.2   251      8.3   790.6    0.00     147    999.0  161.9
 211   14:50   78.9    21    2.3   261      7.5   790.6    0.00     269    999.0  161.9
 211   15:00   78.8    21    3.0   225      9.5   790.5    0.00     102    999.0  161.8
 211   15:10   78.3    21    2.9   247      7.1   790.6    0.00     404    999.0  161.8
 211   15:20   78.8    21    2.4   245      8.3   790.5    0.00      78    999.0  161.9
 211   15:30   78.4    21    2.9   235      8.3   790.6    0.00      41    999.0  161.8
 211   15:40   78.3    20    3.0   231      9.6   790.6    0.00      75    999.0  161.7
 211   15:50   78.2    21    1.9   293      8.1   790.6    0.00      39    999.0  161.6
 211   16:00   78.3    20    0.8   322      6.0   790.6    0.00      25    999.0  161.5
 211   16:10   78.1    20    1.7   301      5.6   790.5    0.00      28    999.0  161.2
 211   16:20   77.9    20    2.4   261      6.6   790.5    0.00      64    999.0  160.8
 211   16:30   78.4    20    1.4   307      3.7   790.5    0.00      26    999.0  161.3
 211   16:40   78.3    20    1.9   297      7.5   790.4    0.00     153    999.0  161.8
 211   16:50   78.1    20    1.2   320      6.4   790.4    0.00     254    999.0  161.8
 211   17:00   77.3    21    1.9   293      8.3   790.3    0.00     236    999.0  161.8
 211   17:10   76.4    21    2.4   295      9.1   790.3    0.00     212    999.0  161.9
 211   17:20   76.7    21    1.9   299      6.1   790.2    0.00     189    999.0  162.0
 211   17:30  999.0   999  999.0   999    999.0   999.0   999.00     999    999.0  999.0
 211   17:40   76.2    21    1.7   307      3.9   790.2    0.00     143    999.0  161.9
 211   17:50   75.7    21    1.7   309      3.4   790.2    0.00     122    999.0  161.8
 211   18:00   75.4    21    1.7   303      3.7   790.2    0.00     102    999.0  161.7
 211   18:10   74.9    22    1.7   298      5.0   790.2    0.00      83    999.0  161.2
 211   18:20   73.2    24    1.7   299      5.0   790.3    0.00      41    999.0  161.7
 211   18:30   71.7    25    1.4   318      3.1   790.3    0.00      19    999.0  162.0
 211   18:40   71.0    27    1.3   316      3.2   790.3    0.00      23    999.0  162.1
 211   18:50   70.2    28    1.3   316      3.0   790.3    0.00      11    999.0  162.2
 211   19:00   69.5    28    1.1   321      2.5   790.3    0.00       7    999.0  162.2
 211   19:10   68.8    29    1.1   335      1.7   790.3    0.00       4    999.0  162.2
 211   19:20   68.3    28    1.3   336      2.0   790.3    0.00       2    999.0  162.2
 211   19:30   68.1    27    1.6   334      2.3   790.3    0.00       1    999.0  162.2
 211   19:40   68.0    28    1.2   341      1.8   790.3    0.00       0    999.0  162.2
 211   19:50   67.9    28    1.2   340      1.8   790.4    0.00       0    999.0  162.2
 211   20:00   67.8    27    1.1   339      1.5   790.5    0.00       0    999.0  162.2
 211   20:10   67.5    27    0.9   324      1.7   790.5    0.00       0    999.0  162.2
 211   20:20   67.3    27    0.7   343      1.6   790.5    0.00       0    999.0  162.2
 211   20:30   67.4    27    1.1    17      1.9   790.5    0.00       0    999.0  162.2
 211   20:40   67.4    28    0.6    76      1.5   790.6    0.00       0    999.0  162.2
 211   20:50   67.9    27    0.3    42      1.0   790.6    0.00       0    999.0  162.2
 211   21:00   68.1    27    1.4    78      2.6   790.7    0.00       0    999.0  162.2
 211   21:10   67.9    28    1.7    81      2.9   790.6    0.00       0    999.0  162.2
 211   21:20   68.1    28    1.6    80      2.8   790.6    0.00       0    999.0  162.2
 211   21:30   68.4    27    0.6    66      1.3   790.5    0.00       0    999.0  162.2
 211   21:40   68.6    26    0.0    58      0.5   790.5    0.00       0    999.0  162.2
 211   21:50   68.5    26    0.3   323      0.9   790.4    0.00       0    999.0  162.2
 211   22:00   68.7    26    0.6   302      1.6   790.3    0.00       0    999.0  162.2
 211   22:10   68.8    26    0.5   306      1.0   790.2    0.00       0    999.0  162.2
 211   22:20   68.5    26    0.0   307      0.3   790.2    0.00       0    999.0  162.2
 211   22:30   68.1    27    0.0     0      0.0   790.2    0.00       0    999.0  162.2
 211   22:40   67.9    27    0.0   310      0.5   790.2    0.00       0    999.0  162.2
 211   22:50   67.9    27    0.1   310      0.7   790.2    0.00       0    999.0  162.2
 211   23:00   67.9    27    0.7   308      0.9   790.2    0.00       0    999.0  162.2
 211   23:10   68.2    27    0.8   308      1.2   790.1    0.00       0    999.0  162.2
 211   23:20   68.3    27    0.9   310      1.2   790.1    0.00       0    999.0  162.2
 211   23:30   68.2    27    0.9   311      1.3   790.1    0.00       0    999.0  162.2
 211   23:40   68.1    27    1.1   294      2.3   790.1    0.00       0    999.0  162.2
 211   23:50   67.9    27    0.5   290      1.5   790.0    0.00       0    999.0  162.2
 212    0:00   67.9    27    0.0   291      0.6   790.0    0.00       0    999.0  162.2
 212    0:10   67.7    27    0.1   292      0.9   789.9    0.00       0    999.0  162.2
 212    0:20   67.8    26    0.0   297      0.3   789.9    0.00       0    999.0  162.2
 212    0:30   67.9    26    0.0   297      0.5   790.0    0.00       0    999.0  162.2

Return to Alpha graphs page.


Western Regional Climate Center,wrcc@dri.edu